Terminal Aerodrome Forecast (TAF)

TAF

Updated on: Sun 14 Jul 2024 at 10:03:26PM VUT Local time - UTC time: 2024-07-14 11:03:26Z


TAF NVSC 141100Z 1412/1512 VRB01KT 9999 SCT020 INTER 1412/1418 9000 -SHRA SCT018 BKN040

TAF NVSG 141100Z 1412/1512 VRB04KT 9999 SCT020 BKN040 INTER 1412/1418 9000 -SHRA SCT018 BKN038

TAF NVSS 141100Z 1412/1512 VRB03KT 9999 SCT020 BKN040 INTER 1412/1418 8000 SHRA SCT010 BKN018 OVC038

TAF NVSP 141100Z 1412/1512 VRB01KT 9999 SCT020 BKN040 INTER 1412/1418 8000 SHRA SCT010 BKN018 OVC038

TAF NVSL 141100Z 1412/1512 VRB02KT 9999 SCT020 BKN040 INTER 1412/1418 8000 SHRA SCT010 BKN018 OVC038

TAF NVVV 141100Z 1412/1512 VRB03KT 9999 SCT020 BKN040 INTER 1412/1418 8000 SHRA SCT010 BKN018 OVC038

TAF NVVW 141100Z 1412/1512 VRB04KT 9999 BKN020 OVC040 INTER 1412/1418 8000 SHRA SCT010 BKN018 OVC038

TAF NVVA 141100Z 1412/1512 VB04KT 9999 BKN020 OVC040 INTER 1412/1418 8000 SHRA SCT010 BKN018 OVC038